sensor_id;sensor_type;location;lat;lon;timestamp;temperature;humidity
33139;DHT22;19501;50.948;5.316;2023-01-05T00:01:10;11.70;99.90
33139;DHT22;19501;50.948;5.316;2023-01-05T00:03:36;11.70;99.90
33139;DHT22;19501;50.948;5.316;2023-01-05T00:06:05;11.70;99.90
33139;DHT22;19501;50.948;5.316;2023-01-05T00:08:31;11.70;99.90
33139;DHT22;19501;50.948;5.316;2023-01-05T00:11:02;11.70;99.90
33139;DHT22;19501;50.948;5.316;2023-01-05T00:13:46;11.70;99.90
33139;DHT22;19501;50.948;5.316;2023-01-05T00:16:30;11.70;99.90
33139;DHT22;19501;50.948;5.316;2023-01-05T00:19:15;11.70;99.90
33139;DHT22;19501;50.948;5.316;2023-01-05T00:21:59;11.70;99.90
33139;DHT22;19501;50.948;5.316;2023-01-05T00:24:43;11.60;99.90
33139;DHT22;19501;50.948;5.316;2023-01-05T00:27:09;11.60;99.90
33139;DHT22;19501;50.948;5.316;2023-01-05T00:29:35;11.60;99.90
33139;DHT22;19501;50.948;5.316;2023-01-05T00:32:01;11.60;99.90
33139;DHT22;19501;50.948;5.316;2023-01-05T00:34:27;11.60;99.90
33139;DHT22;19501;50.948;5.316;2023-01-05T00:36:53;11.60;99.90
33139;DHT22;19501;50.948;5.316;2023-01-05T00:39:18;11.70;99.90
33139;DHT22;19501;50.948;5.316;2023-01-05T00:41:44;11.60;99.90
33139;DHT22;19501;50.948;5.316;2023-01-05T00:44:10;11.70;99.90
33139;DHT22;19501;50.948;5.316;2023-01-05T00:46:36;11.70;99.90
33139;DHT22;19501;50.948;5.316;2023-01-05T00:49:01;11.80;99.90
33139;DHT22;19501;50.948;5.316;2023-01-05T00:51:27;11.70;99.90
33139;DHT22;19501;50.948;5.316;2023-01-05T00:53:53;11.70;99.90
33139;DHT22;19501;50.948;5.316;2023-01-05T00:56:19;11.70;99.90
33139;DHT22;19501;50.948;5.316;2023-01-05T00:58:45;11.80;99.90
33139;DHT22;19501;50.948;5.316;2023-01-05T01:01:11;11.80;99.90
33139;DHT22;19501;50.948;5.316;2023-01-05T01:03:37;11.70;99.90
33139;DHT22;19501;50.948;5.316;2023-01-05T01:06:03;11.80;99.90
33139;DHT22;19501;50.948;5.316;2023-01-05T01:08:28;11.80;99.90
33139;DHT22;19501;50.948;5.316;2023-01-05T01:10:54;11.80;99.90
33139;DHT22;19501;50.948;5.316;2023-01-05T01:13:22;11.80;99.90
33139;DHT22;19501;50.948;5.316;2023-01-05T01:15:47;11.70;99.90
33139;DHT22;19501;50.948;5.316;2023-01-05T01:18:14;11.70;99.90
33139;DHT22;19501;50.948;5.316;2023-01-05T01:20:39;11.70;99.90
33139;DHT22;19501;50.948;5.316;2023-01-05T01:23:05;11.70;99.90
33139;DHT22;19501;50.948;5.316;2023-01-05T01:25:31;11.70;99.90
33139;DHT22;19501;50.948;5.316;2023-01-05T01:27:57;11.60;99.90
33139;DHT22;19501;50.948;5.316;2023-01-05T01:30:23;11.60;99.90
33139;DHT22;19501;50.948;5.316;2023-01-05T01:32:51;11.60;99.90
33139;DHT22;19501;50.948;5.316;2023-01-05T01:35:17;11.60;99.90
33139;DHT22;19501;50.948;5.316;2023-01-05T01:37:42;11.60;99.90
33139;DHT22;19501;50.948;5.316;2023-01-05T01:40:11;11.60;99.90
33139;DHT22;19501;50.948;5.316;2023-01-05T01:42:37;11.60;99.90
33139;DHT22;19501;50.948;5.316;2023-01-05T01:45:23;11.70;99.90
33139;DHT22;19501;50.948;5.316;2023-01-05T01:47:54;11.60;99.90
33139;DHT22;19501;50.948;5.316;2023-01-05T01:50:31;11.70;99.90
33139;DHT22;19501;50.948;5.316;2023-01-05T01:53:02;11.60;99.90
33139;DHT22;19501;50.948;5.316;2023-01-05T01:55:29;11.60;99.90
33139;DHT22;19501;50.948;5.316;2023-01-05T01:57:56;11.60;99.90
33139;DHT22;19501;50.948;5.316;2023-01-05T02:00:22;11.60;99.90
33139;DHT22;19501;50.948;5.316;2023-01-05T02:02:48;11.60;99.90
33139;DHT22;19501;50.948;5.316;2023-01-05T02:05:15;11.60;99.90
33139;DHT22;19501;50.948;5.316;2023-01-05T02:07:45;11.70;99.90
33139;DHT22;19501;50.948;5.316;2023-01-05T02:10:12;11.60;99.90
33139;DHT22;19501;50.948;5.316;2023-01-05T02:15:20;11.60;99.90
33139;DHT22;19501;50.948;5.316;2023-01-05T02:20:48;11.70;99.90
33139;DHT22;19501;50.948;5.316;2023-01-05T02:39:23;11.60;99.90
33139;DHT22;19501;50.948;5.316;2023-01-05T02:41:58;11.60;99.90
33139;DHT22;19501;50.948;5.316;2023-01-05T02:44:29;11.60;99.90
33139;DHT22;19501;50.948;5.316;2023-01-05T02:46:58;11.60;99.90
33139;DHT22;19501;50.948;5.316;2023-01-05T02:49:24;11.70;99.90
33139;DHT22;19501;50.948;5.316;2023-01-05T02:51:50;11.70;99.90
33139;DHT22;19501;50.948;5.316;2023-01-05T02:54:19;11.60;99.90
33139;DHT22;19501;50.948;5.316;2023-01-05T02:57:29;11.60;99.90
33139;DHT22;19501;50.948;5.316;2023-01-05T02:59:36;11.70;99.90
33139;DHT22;19501;50.948;5.316;2023-01-05T03:02:26;11.70;99.90
33139;DHT22;19501;50.948;5.316;2023-01-05T03:04:54;11.70;99.90
33139;DHT22;19501;50.948;5.316;2023-01-05T03:07:26;11.70;99.90
33139;DHT22;19501;50.948;5.316;2023-01-05T03:09:53;11.70;99.90
33139;DHT22;19501;50.948;5.316;2023-01-05T03:12:30;11.60;99.90
33139;DHT22;19501;50.948;5.316;2023-01-05T03:15:24;11.60;99.90
33139;DHT22;19501;50.948;5.316;2023-01-05T03:17:51;11.60;99.90
33139;DHT22;19501;50.948;5.316;2023-01-05T03:20:20;11.70;99.90
33139;DHT22;19501;50.948;5.316;2023-01-05T03:22:47;11.70;99.90
33139;DHT22;19501;50.948;5.316;2023-01-05T03:25:33;11.70;99.90
33139;DHT22;19501;50.948;5.316;2023-01-05T03:28:22;11.70;99.90
33139;DHT22;19501;50.948;5.316;2023-01-05T03:31:12;11.70;99.90
33139;DHT22;19501;50.948;5.316;2023-01-05T03:34:15;11.70;99.90
33139;DHT22;19501;50.948;5.316;2023-01-05T03:37:04;11.70;99.90
33139;DHT22;19501;50.948;5.316;2023-01-05T03:39:31;11.70;99.90
33139;DHT22;19501;50.948;5.316;2023-01-05T03:41:58;11.70;99.90
33139;DHT22;19501;50.948;5.316;2023-01-05T03:44:24;11.80;99.90
33139;DHT22;19501;50.948;5.316;2023-01-05T03:46:50;11.80;99.90
33139;DHT22;19501;50.948;5.316;2023-01-05T03:49:15;11.80;99.90
33139;DHT22;19501;50.948;5.316;2023-01-05T03:51:42;11.80;99.90
33139;DHT22;19501;50.948;5.316;2023-01-05T03:54:08;11.80;99.90
33139;DHT22;19501;50.948;5.316;2023-01-05T03:56:33;11.80;99.90
33139;DHT22;19501;50.948;5.316;2023-01-05T03:58:59;11.90;99.90
33139;DHT22;19501;50.948;5.316;2023-01-05T04:01:25;11.80;99.90
33139;DHT22;19501;50.948;5.316;2023-01-05T04:03:51;11.80;99.90
33139;DHT22;19501;50.948;5.316;2023-01-05T04:06:16;11.80;99.90
33139;DHT22;19501;50.948;5.316;2023-01-05T04:08:42;11.80;99.90
33139;DHT22;19501;50.948;5.316;2023-01-05T04:11:14;11.80;99.90
33139;DHT22;19501;50.948;5.316;2023-01-05T04:13:40;11.80;99.90
33139;DHT22;19501;50.948;5.316;2023-01-05T04:16:06;11.90;99.90
33139;DHT22;19501;50.948;5.316;2023-01-05T04:18:31;11.90;99.90
33139;DHT22;19501;50.948;5.316;2023-01-05T04:20:57;11.90;99.90
33139;DHT22;19501;50.948;5.316;2023-01-05T04:23:23;11.80;99.90
33139;DHT22;19501;50.948;5.316;2023-01-05T04:25:48;11.80;99.90
33139;DHT22;19501;50.948;5.316;2023-01-05T04:28:14;11.80;99.90
33139;DHT22;19501;50.948;5.316;2023-01-05T04:30:42;11.80;99.90
33139;DHT22;19501;50.948;5.316;2023-01-05T04:33:07;11.80;99.90
33139;DHT22;19501;50.948;5.316;2023-01-05T04:35:33;11.80;99.90
33139;DHT22;19501;50.948;5.316;2023-01-05T04:38:01;11.80;99.90
33139;DHT22;19501;50.948;5.316;2023-01-05T04:40:26;11.90;99.90
33139;DHT22;19501;50.948;5.316;2023-01-05T04:42:51;11.80;99.90
33139;DHT22;19501;50.948;5.316;2023-01-05T04:45:17;11.80;99.90
33139;DHT22;19501;50.948;5.316;2023-01-05T04:47:43;11.80;99.90
33139;DHT22;19501;50.948;5.316;2023-01-05T04:50:09;11.80;99.90
33139;DHT22;19501;50.948;5.316;2023-01-05T04:52:35;11.80;99.90
33139;DHT22;19501;50.948;5.316;2023-01-05T04:55:00;11.80;99.90
33139;DHT22;19501;50.948;5.316;2023-01-05T04:57:26;11.70;99.90
33139;DHT22;19501;50.948;5.316;2023-01-05T04:59:52;11.70;99.90
33139;DHT22;19501;50.948;5.316;2023-01-05T05:02:17;11.70;99.90
33139;DHT22;19501;50.948;5.316;2023-01-05T05:04:43;11.80;99.90
33139;DHT22;19501;50.948;5.316;2023-01-05T05:07:09;11.80;99.90
33139;DHT22;19501;50.948;5.316;2023-01-05T05:09:34;11.80;99.90
33139;DHT22;19501;50.948;5.316;2023-01-05T05:12:00;11.80;99.90
33139;DHT22;19501;50.948;5.316;2023-01-05T05:14:25;11.80;99.90
33139;DHT22;19501;50.948;5.316;2023-01-05T05:16:51;11.80;99.90
33139;DHT22;19501;50.948;5.316;2023-01-05T05:19:17;11.80;99.90
33139;DHT22;19501;50.948;5.316;2023-01-05T05:21:42;11.80;99.90
33139;DHT22;19501;50.948;5.316;2023-01-05T05:24:08;11.70;99.90
33139;DHT22;19501;50.948;5.316;2023-01-05T05:26:34;11.70;99.90
33139;DHT22;19501;50.948;5.316;2023-01-05T05:29:01;11.80;99.90
33139;DHT22;19501;50.948;5.316;2023-01-05T05:31:27;11.80;99.90
33139;DHT22;19501;50.948;5.316;2023-01-05T05:33:53;11.80;99.90
33139;DHT22;19501;50.948;5.316;2023-01-05T05:36:18;11.80;99.90
33139;DHT22;19501;50.948;5.316;2023-01-05T05:38:44;11.80;99.90
33139;DHT22;19501;50.948;5.316;2023-01-05T05:41:10;11.80;99.90
33139;DHT22;19501;50.948;5.316;2023-01-05T05:43:35;11.80;99.90
33139;DHT22;19501;50.948;5.316;2023-01-05T05:46:01;11.80;99.90
33139;DHT22;19501;50.948;5.316;2023-01-05T05:48:27;11.80;99.90
33139;DHT22;19501;50.948;5.316;2023-01-05T05:50:53;11.70;99.90
33139;DHT22;19501;50.948;5.316;2023-01-05T05:53:19;11.80;99.90
33139;DHT22;19501;50.948;5.316;2023-01-05T05:55:47;11.70;99.90
33139;DHT22;19501;50.948;5.316;2023-01-05T05:58:14;11.70;99.90
33139;DHT22;19501;50.948;5.316;2023-01-05T06:00:39;11.70;99.90
33139;DHT22;19501;50.948;5.316;2023-01-05T06:03:05;11.70;99.90
33139;DHT22;19501;50.948;5.316;2023-01-05T06:05:31;11.70;99.90
33139;DHT22;19501;50.948;5.316;2023-01-05T06:07:56;11.60;99.90
33139;DHT22;19501;50.948;5.316;2023-01-05T06:10:22;11.60;99.90
33139;DHT22;19501;50.948;5.316;2023-01-05T06:12:47;11.60;99.90
33139;DHT22;19501;50.948;5.316;2023-01-05T06:15:13;11.60;99.90
33139;DHT22;19501;50.948;5.316;2023-01-05T06:17:38;11.60;99.90
33139;DHT22;19501;50.948;5.316;2023-01-05T06:20:04;11.60;99.90
33139;DHT22;19501;50.948;5.316;2023-01-05T06:22:31;11.60;99.90
33139;DHT22;19501;50.948;5.316;2023-01-05T06:24:56;11.60;99.90
33139;DHT22;19501;50.948;5.316;2023-01-05T06:27:22;11.70;99.90
33139;DHT22;19501;50.948;5.316;2023-01-05T06:29:47;11.70;99.90
33139;DHT22;19501;50.948;5.316;2023-01-05T06:32:13;11.70;99.90
33139;DHT22;19501;50.948;5.316;2023-01-05T06:34:39;11.70;99.90
33139;DHT22;19501;50.948;5.316;2023-01-05T06:37:05;11.70;99.90
33139;DHT22;19501;50.948;5.316;2023-01-05T06:39:31;11.70;99.90
33139;DHT22;19501;50.948;5.316;2023-01-05T06:42:00;11.70;99.90
33139;DHT22;19501;50.948;5.316;2023-01-05T06:44:25;11.70;99.90
33139;DHT22;19501;50.948;5.316;2023-01-05T06:46:51;11.70;99.90
33139;DHT22;19501;50.948;5.316;2023-01-05T06:49:17;11.70;99.90
33139;DHT22;19501;50.948;5.316;2023-01-05T06:51:43;11.70;99.90
33139;DHT22;19501;50.948;5.316;2023-01-05T06:54:09;11.70;99.90
33139;DHT22;19501;50.948;5.316;2023-01-05T06:56:35;11.80;99.90
33139;DHT22;19501;50.948;5.316;2023-01-05T06:59:01;11.70;99.90
33139;DHT22;19501;50.948;5.316;2023-01-05T07:01:27;11.70;99.90
33139;DHT22;19501;50.948;5.316;2023-01-05T07:03:53;11.80;99.90
33139;DHT22;19501;50.948;5.316;2023-01-05T07:06:18;11.80;99.90
33139;DHT22;19501;50.948;5.316;2023-01-05T07:08:44;11.80;99.90
33139;DHT22;19501;50.948;5.316;2023-01-05T07:11:09;11.80;99.90
33139;DHT22;19501;50.948;5.316;2023-01-05T07:13:35;11.80;99.90
33139;DHT22;19501;50.948;5.316;2023-01-05T07:16:00;11.80;99.90
33139;DHT22;19501;50.948;5.316;2023-01-05T07:18:26;11.80;99.90
33139;DHT22;19501;50.948;5.316;2023-01-05T07:20:53;11.90;99.90
33139;DHT22;19501;50.948;5.316;2023-01-05T07:23:19;11.90;99.90
33139;DHT22;19501;50.948;5.316;2023-01-05T07:25:44;11.80;99.90
33139;DHT22;19501;50.948;5.316;2023-01-05T07:28:10;11.70;99.90
33139;DHT22;19501;50.948;5.316;2023-01-05T07:30:36;11.70;99.90
33139;DHT22;19501;50.948;5.316;2023-01-05T07:33:02;11.70;99.90
33139;DHT22;19501;50.948;5.316;2023-01-05T07:35:28;11.70;99.90
33139;DHT22;19501;50.948;5.316;2023-01-05T07:37:57;11.70;99.90
33139;DHT22;19501;50.948;5.316;2023-01-05T07:40:23;11.70;99.90
33139;DHT22;19501;50.948;5.316;2023-01-05T07:42:52;11.70;99.90
33139;DHT22;19501;50.948;5.316;2023-01-05T07:45:18;11.80;99.90
33139;DHT22;19501;50.948;5.316;2023-01-05T07:47:44;11.70;99.90
33139;DHT22;19501;50.948;5.316;2023-01-05T07:50:10;11.70;99.90
33139;DHT22;19501;50.948;5.316;2023-01-05T07:52:36;11.80;99.90
33139;DHT22;19501;50.948;5.316;2023-01-05T07:55:03;11.80;99.90
33139;DHT22;19501;50.948;5.316;2023-01-05T07:57:29;11.80;99.90
33139;DHT22;19501;50.948;5.316;2023-01-05T07:59:55;11.80;99.90
33139;DHT22;19501;50.948;5.316;2023-01-05T08:02:21;11.80;99.90
33139;DHT22;19501;50.948;5.316;2023-01-05T08:04:47;11.70;99.90
33139;DHT22;19501;50.948;5.316;2023-01-05T08:07:12;11.70;99.90
33139;DHT22;19501;50.948;5.316;2023-01-05T08:09:40;11.70;99.90
33139;DHT22;19501;50.948;5.316;2023-01-05T08:12:24;11.60;99.90
33139;DHT22;19501;50.948;5.316;2023-01-05T08:14:49;11.70;99.90
33139;DHT22;19501;50.948;5.316;2023-01-05T08:17:15;11.70;99.90
33139;DHT22;19501;50.948;5.316;2023-01-05T08:19:41;11.70;99.90
33139;DHT22;19501;50.948;5.316;2023-01-05T08:22:06;11.70;99.90
33139;DHT22;19501;50.948;5.316;2023-01-05T08:24:32;11.70;99.90
33139;DHT22;19501;50.948;5.316;2023-01-05T08:26:58;11.70;99.90
33139;DHT22;19501;50.948;5.316;2023-01-05T08:29:24;11.70;99.90
33139;DHT22;19501;50.948;5.316;2023-01-05T08:31:50;11.70;99.90
33139;DHT22;19501;50.948;5.316;2023-01-05T08:34:16;11.80;99.90
33139;DHT22;19501;50.948;5.316;2023-01-05T08:36:41;11.80;99.90
33139;DHT22;19501;50.948;5.316;2023-01-05T08:39:08;11.80;99.90
33139;DHT22;19501;50.948;5.316;2023-01-05T08:41:37;11.70;99.90
33139;DHT22;19501;50.948;5.316;2023-01-05T08:44:04;11.70;99.90
33139;DHT22;19501;50.948;5.316;2023-01-05T08:46:31;11.70;99.90
33139;DHT22;19501;50.948;5.316;2023-01-05T08:48:58;11.80;99.90
33139;DHT22;19501;50.948;5.316;2023-01-05T08:51:24;11.80;99.90
33139;DHT22;19501;50.948;5.316;2023-01-05T08:53:50;11.70;99.90
33139;DHT22;19501;50.948;5.316;2023-01-05T08:56:15;11.80;99.90
33139;DHT22;19501;50.948;5.316;2023-01-05T08:58:41;11.80;99.90
33139;DHT22;19501;50.948;5.316;2023-01-05T09:01:07;11.80;99.90
33139;DHT22;19501;50.948;5.316;2023-01-05T09:03:33;11.90;99.90
33139;DHT22;19501;50.948;5.316;2023-01-05T09:05:59;11.90;99.90
33139;DHT22;19501;50.948;5.316;2023-01-05T09:08:27;11.90;99.90
33139;DHT22;19501;50.948;5.316;2023-01-05T09:10:53;11.90;99.90
33139;DHT22;19501;50.948;5.316;2023-01-05T09:13:19;11.90;99.90
33139;DHT22;19501;50.948;5.316;2023-01-05T09:15:44;12.00;99.90
33139;DHT22;19501;50.948;5.316;2023-01-05T09:18:10;12.00;99.90
33139;DHT22;19501;50.948;5.316;2023-01-05T09:20:37;12.10;99.90
33139;DHT22;19501;50.948;5.316;2023-01-05T09:23:03;12.10;99.90
33139;DHT22;19501;50.948;5.316;2023-01-05T09:25:29;12.10;99.90
33139;DHT22;19501;50.948;5.316;2023-01-05T09:27:54;12.20;99.90
33139;DHT22;19501;50.948;5.316;2023-01-05T09:30:20;12.20;99.90
33139;DHT22;19501;50.948;5.316;2023-01-05T09:32:46;12.30;99.90
33139;DHT22;19501;50.948;5.316;2023-01-05T09:35:12;12.30;99.90
33139;DHT22;19501;50.948;5.316;2023-01-05T09:37:37;12.30;99.90
33139;DHT22;19501;50.948;5.316;2023-01-05T09:40:03;12.20;99.90
33139;DHT22;19501;50.948;5.316;2023-01-05T09:42:29;12.20;99.90
33139;DHT22;19501;50.948;5.316;2023-01-05T09:44:58;12.30;99.90
33139;DHT22;19501;50.948;5.316;2023-01-05T09:47:26;12.30;99.90
33139;DHT22;19501;50.948;5.316;2023-01-05T09:49:54;12.30;99.90
33139;DHT22;19501;50.948;5.316;2023-01-05T09:52:21;12.40;99.90
33139;DHT22;19501;50.948;5.316;2023-01-05T09:54:47;12.30;99.90
33139;DHT22;19501;50.948;5.316;2023-01-05T09:57:18;12.30;99.90
33139;DHT22;19501;50.948;5.316;2023-01-05T09:59:45;12.30;99.90
33139;DHT22;19501;50.948;5.316;2023-01-05T10:02:24;12.30;99.90
33139;DHT22;19501;50.948;5.316;2023-01-05T10:04:52;12.30;99.90
33139;DHT22;19501;50.948;5.316;2023-01-05T10:07:39;12.20;99.90
33139;DHT22;19501;50.948;5.316;2023-01-05T10:12:58;12.20;99.90
33139;DHT22;19501;50.948;5.316;2023-01-05T10:15:51;12.20;99.90
33139;DHT22;19501;50.948;5.316;2023-01-05T10:18:29;12.30;99.90
33139;DHT22;19501;50.948;5.316;2023-01-05T10:25:51;12.00;99.90
33139;DHT22;19501;50.948;5.316;2023-01-05T10:33:36;12.30;99.90
33139;DHT22;19501;50.948;5.316;2023-01-05T10:46:09;12.50;99.90
33139;DHT22;19501;50.948;5.316;2023-01-05T10:48:35;12.30;99.90
33139;DHT22;19501;50.948;5.316;2023-01-05T10:51:01;12.30;99.90
33139;DHT22;19501;50.948;5.316;2023-01-05T10:53:28;12.20;99.90
33139;DHT22;19501;50.948;5.316;2023-01-05T10:56:02;12.10;99.90
33139;DHT22;19501;50.948;5.316;2023-01-05T10:58:31;12.30;99.90
33139;DHT22;19501;50.948;5.316;2023-01-05T11:00:58;12.40;99.90
33139;DHT22;19501;50.948;5.316;2023-01-05T11:03:32;12.50;99.90
33139;DHT22;19501;50.948;5.316;2023-01-05T11:05:58;12.50;99.90
33139;DHT22;19501;50.948;5.316;2023-01-05T11:08:27;12.60;99.90
33139;DHT22;19501;50.948;5.316;2023-01-05T11:10:57;12.60;99.90
33139;DHT22;19501;50.948;5.316;2023-01-05T11:13:26;12.70;99.90
33139;DHT22;19501;50.948;5.316;2023-01-05T11:15:53;12.70;99.90
33139;DHT22;19501;50.948;5.316;2023-01-05T11:18:36;12.80;99.90
33139;DHT22;19501;50.948;5.316;2023-01-05T11:23:49;12.60;99.90
33139;DHT22;19501;50.948;5.316;2023-01-05T11:31:22;12.60;99.90
33139;DHT22;19501;50.948;5.316;2023-01-05T11:33:47;12.60;99.90
33139;DHT22;19501;50.948;5.316;2023-01-05T11:36:20;12.40;99.90
33139;DHT22;19501;50.948;5.316;2023-01-05T11:38:49;12.50;99.90
33139;DHT22;19501;50.948;5.316;2023-01-05T11:41:15;12.40;99.90
33139;DHT22;19501;50.948;5.316;2023-01-05T11:43:44;12.50;99.90
33139;DHT22;19501;50.948;5.316;2023-01-05T11:46:11;12.50;99.90
33139;DHT22;19501;50.948;5.316;2023-01-05T11:48:39;12.60;99.90
33139;DHT22;19501;50.948;5.316;2023-01-05T11:51:07;12.70;99.90
33139;DHT22;19501;50.948;5.316;2023-01-05T11:58:31;12.80;99.90
33139;DHT22;19501;50.948;5.316;2023-01-05T12:06:21;13.10;99.90
33139;DHT22;19501;50.948;5.316;2023-01-05T12:08:57;13.30;99.90
33139;DHT22;19501;50.948;5.316;2023-01-05T12:11:26;13.20;99.90
33139;DHT22;19501;50.948;5.316;2023-01-05T12:21:33;13.70;99.90
33139;DHT22;19501;50.948;5.316;2023-01-05T12:34:34;13.30;99.90
33139;DHT22;19501;50.948;5.316;2023-01-05T12:42:24;13.80;99.90
33139;DHT22;19501;50.948;5.316;2023-01-05T12:44:58;13.70;99.90
33139;DHT22;19501;50.948;5.316;2023-01-05T12:52:46;13.40;99.90
33139;DHT22;19501;50.948;5.316;2023-01-05T12:55:33;13.20;99.90
33139;DHT22;19501;50.948;5.316;2023-01-05T12:58:04;13.20;99.90
33139;DHT22;19501;50.948;5.316;2023-01-05T13:00:33;13.30;99.90
33139;DHT22;19501;50.948;5.316;2023-01-05T13:03:02;13.40;99.90
33139;DHT22;19501;50.948;5.316;2023-01-05T13:05:30;13.50;99.90
33139;DHT22;19501;50.948;5.316;2023-01-05T13:10:26;13.30;99.90
33139;DHT22;19501;50.948;5.316;2023-01-05T13:12:58;13.20;99.90
33139;DHT22;19501;50.948;5.316;2023-01-05T13:18:19;13.40;99.90
33139;DHT22;19501;50.948;5.316;2023-01-05T13:20:52;13.50;99.90
33139;DHT22;19501;50.948;5.316;2023-01-05T13:23:29;13.50;99.90
33139;DHT22;19501;50.948;5.316;2023-01-05T13:26:03;13.50;99.90
33139;DHT22;19501;50.948;5.316;2023-01-05T13:28:30;13.60;99.90
33139;DHT22;19501;50.948;5.316;2023-01-05T13:31:06;13.40;99.90
33139;DHT22;19501;50.948;5.316;2023-01-05T13:53:44;13.30;99.90
33139;DHT22;19501;50.948;5.316;2023-01-05T13:56:21;13.30;99.90
33139;DHT22;19501;50.948;5.316;2023-01-05T13:59:01;13.20;99.90
33139;DHT22;19501;50.948;5.316;2023-01-05T14:03:59;12.80;99.90
33139;DHT22;19501;50.948;5.316;2023-01-05T14:06:27;12.70;99.90
33139;DHT22;19501;50.948;5.316;2023-01-05T14:08:57;12.50;99.90
33139;DHT22;19501;50.948;5.316;2023-01-05T14:11:25;12.50;99.90
33139;DHT22;19501;50.948;5.316;2023-01-05T14:13:52;12.40;99.90
33139;DHT22;19501;50.948;5.316;2023-01-05T14:24:34;11.80;99.90
33139;DHT22;19501;50.948;5.316;2023-01-05T14:32:16;11.50;99.90
33139;DHT22;19501;50.948;5.316;2023-01-05T14:35:05;11.40;99.90
33139;DHT22;19501;50.948;5.316;2023-01-05T14:37:48;11.30;99.90
33139;DHT22;19501;50.948;5.316;2023-01-05T14:40:22;11.40;99.90
33139;DHT22;19501;50.948;5.316;2023-01-05T14:42:49;11.50;99.90
33139;DHT22;19501;50.948;5.316;2023-01-05T14:45:26;11.50;99.90
33139;DHT22;19501;50.948;5.316;2023-01-05T14:47:54;11.60;99.90
33139;DHT22;19501;50.948;5.316;2023-01-05T14:55:35;11.40;99.90
33139;DHT22;19501;50.948;5.316;2023-01-05T15:00:54;11.10;99.90
33139;DHT22;19501;50.948;5.316;2023-01-05T15:05:54;11.00;99.90
33139;DHT22;19501;50.948;5.316;2023-01-05T15:19:19;11.00;99.90
33139;DHT22;19501;50.948;5.316;2023-01-05T15:22:06;11.00;99.90
33139;DHT22;19501;50.948;5.316;2023-01-05T15:25:27;11.00;99.90
33139;DHT22;19501;50.948;5.316;2023-01-05T15:33:03;11.30;99.90
33139;DHT22;19501;50.948;5.316;2023-01-05T15:35:34;11.20;99.90
33139;DHT22;19501;50.948;5.316;2023-01-05T15:38:19;11.10;99.90
33139;DHT22;19501;50.948;5.316;2023-01-05T15:40:45;11.20;99.90
33139;DHT22;19501;50.948;5.316;2023-01-05T15:43:15;11.30;99.90
33139;DHT22;19501;50.948;5.316;2023-01-05T15:45:41;11.30;99.90
33139;DHT22;19501;50.948;5.316;2023-01-05T15:48:15;11.30;99.90
33139;DHT22;19501;50.948;5.316;2023-01-05T15:50:46;11.40;99.90
33139;DHT22;19501;50.948;5.316;2023-01-05T15:53:23;11.40;99.90
33139;DHT22;19501;50.948;5.316;2023-01-05T15:55:49;11.30;99.90
33139;DHT22;19501;50.948;5.316;2023-01-05T15:58:17;11.20;99.90
33139;DHT22;19501;50.948;5.316;2023-01-05T16:00:42;11.30;99.90
33139;DHT22;19501;50.948;5.316;2023-01-05T16:03:27;11.30;99.90
33139;DHT22;19501;50.948;5.316;2023-01-05T16:05:56;11.20;99.90
33139;DHT22;19501;50.948;5.316;2023-01-05T16:08:23;11.20;99.90
33139;DHT22;19501;50.948;5.316;2023-01-05T16:10:55;11.20;99.90
33139;DHT22;19501;50.948;5.316;2023-01-05T16:15:51;11.40;99.90
33139;DHT22;19501;50.948;5.316;2023-01-05T16:18:19;11.40;99.90
33139;DHT22;19501;50.948;5.316;2023-01-05T16:20:46;11.30;99.90
33139;DHT22;19501;50.948;5.316;2023-01-05T16:23:15;11.20;99.90
33139;DHT22;19501;50.948;5.316;2023-01-05T16:25:47;11.20;99.90
33139;DHT22;19501;50.948;5.316;2023-01-05T16:28:15;11.20;99.90
33139;DHT22;19501;50.948;5.316;2023-01-05T16:30:41;11.30;99.90
33139;DHT22;19501;50.948;5.316;2023-01-05T16:38:04;11.40;99.90
33139;DHT22;19501;50.948;5.316;2023-01-05T16:40:29;11.40;99.90
33139;DHT22;19501;50.948;5.316;2023-01-05T16:42:55;11.40;99.90
33139;DHT22;19501;50.948;5.316;2023-01-05T16:45:24;11.40;99.90
33139;DHT22;19501;50.948;5.316;2023-01-05T16:47:54;11.40;99.90
33139;DHT22;19501;50.948;5.316;2023-01-05T16:52:57;11.50;99.90
33139;DHT22;19501;50.948;5.316;2023-01-05T16:55:31;11.40;99.90
33139;DHT22;19501;50.948;5.316;2023-01-05T16:57:58;11.40;99.90
33139;DHT22;19501;50.948;5.316;2023-01-05T17:02:54;11.50;99.90
33139;DHT22;19501;50.948;5.316;2023-01-05T17:05:21;11.60;99.90
33139;DHT22;19501;50.948;5.316;2023-01-05T17:07:49;11.50;99.90
33139;DHT22;19501;50.948;5.316;2023-01-05T17:10:19;11.50;99.90
33139;DHT22;19501;50.948;5.316;2023-01-05T17:12:47;11.60;99.90
33139;DHT22;19501;50.948;5.316;2023-01-05T17:15:17;11.60;99.90
33139;DHT22;19501;50.948;5.316;2023-01-05T17:17:45;11.60;99.90
33139;DHT22;19501;50.948;5.316;2023-01-05T17:20:11;11.50;99.90
33139;DHT22;19501;50.948;5.316;2023-01-05T17:22:37;11.50;99.90
33139;DHT22;19501;50.948;5.316;2023-01-05T17:25:03;11.50;99.90
33139;DHT22;19501;50.948;5.316;2023-01-05T17:27:29;11.50;99.90
33139;DHT22;19501;50.948;5.316;2023-01-05T17:29:54;11.50;99.90
33139;DHT22;19501;50.948;5.316;2023-01-05T17:32:20;11.50;99.90
33139;DHT22;19501;50.948;5.316;2023-01-05T17:34:46;11.50;99.90
33139;DHT22;19501;50.948;5.316;2023-01-05T17:37:13;11.50;99.90
33139;DHT22;19501;50.948;5.316;2023-01-05T17:39:41;11.50;99.90
33139;DHT22;19501;50.948;5.316;2023-01-05T17:42:07;11.50;99.90
33139;DHT22;19501;50.948;5.316;2023-01-05T17:44:53;11.50;99.90
33139;DHT22;19501;50.948;5.316;2023-01-05T17:47:19;11.50;99.90
33139;DHT22;19501;50.948;5.316;2023-01-05T17:49:45;11.50;99.90
33139;DHT22;19501;50.948;5.316;2023-01-05T17:52:11;11.50;99.90
33139;DHT22;19501;50.948;5.316;2023-01-05T17:54:37;11.50;99.90
33139;DHT22;19501;50.948;5.316;2023-01-05T17:57:04;11.50;99.90
33139;DHT22;19501;50.948;5.316;2023-01-05T17:59:30;11.50;99.90
33139;DHT22;19501;50.948;5.316;2023-01-05T18:01:56;11.50;99.90
33139;DHT22;19501;50.948;5.316;2023-01-05T18:04:22;11.50;99.90
33139;DHT22;19501;50.948;5.316;2023-01-05T18:06:48;11.50;99.90
33139;DHT22;19501;50.948;5.316;2023-01-05T18:09:13;11.50;99.90
33139;DHT22;19501;50.948;5.316;2023-01-05T18:11:39;11.50;99.90
33139;DHT22;19501;50.948;5.316;2023-01-05T18:14:05;11.50;99.90
33139;DHT22;19501;50.948;5.316;2023-01-05T18:16:31;11.60;99.90
33139;DHT22;19501;50.948;5.316;2023-01-05T18:18:57;11.60;99.90
33139;DHT22;19501;50.948;5.316;2023-01-05T18:21:23;11.60;99.90
33139;DHT22;19501;50.948;5.316;2023-01-05T18:23:48;11.60;99.90
33139;DHT22;19501;50.948;5.316;2023-01-05T18:26:14;11.60;99.90
33139;DHT22;19501;50.948;5.316;2023-01-05T18:28:40;11.60;99.90
33139;DHT22;19501;50.948;5.316;2023-01-05T18:31:10;11.60;99.90